Time;durP1;ratioP1;P1;durP2;ratioP2;P2;SDS_P1;SDS_P2;PMS_P1;PMS_P2;Temp;Humidity;BMP_temperature;BMP_pressure;BME280_temperature;BME280_humidity;BME280_pressure;Samples;Min_cycle;Max_cycle;Signal;HPM_P1;HPM_P2
2022/01/30 00:00:33;;;;;;;29.53;20.33;;;;;;;4.20;49.18;100112.91;6306346;22;19991;-76
2022/01/30 00:02:59;;;;;;;32.43;21.53;;;;;;;4.24;49.28;100127.38;6306210;22;20074;-76
2022/01/30 00:05:24;;;;;;;32.23;23.70;;;;;;;4.31;49.25;100143.41;6278806;22;20023;-76
2022/01/30 00:07:50;;;;;;;36.23;25.73;;;;;;;4.25;49.32;100144.72;6306157;22;20432;-76
2022/01/30 00:10:15;;;;;;;36.90;26.67;;;;;;;3.36;49.76;100015.09;6306257;22;19999;-76
2022/01/30 00:12:52;;;;;;;39.47;25.10;;;;;;;3.71;49.96;100085.44;6306263;22;20006;-75
2022/01/30 00:15:19;;;;;;;40.03;24.10;;;;;;;3.87;50.40;100128.66;6278963;22;20007;-76
2022/01/30 00:17:52;;;;;;;36.43;23.70;;;;;;;3.94;50.49;100127.22;6306065;22;20074;-76
2022/01/30 00:20:24;;;;;;;40.27;25.10;;;;;;;3.42;50.50;100073.81;6305966;22;20510;-76
2022/01/30 00:23:06;;;;;;;37.97;26.90;;;;;;;3.56;50.62;100076.19;6278705;22;20000;-75
2022/01/30 00:25:44;;;;;;;;;;;;;;;3.70;50.81;100120.31;6279362;22;20029;-76
2022/01/30 00:28:12;;;;;;;39.13;26.07;;;;;;;3.75;50.97;100115.59;6306212;22;20024;-75
2022/01/30 00:30:37;;;;;;;44.93;24.17;;;;;;;3.79;50.76;100111.81;6305812;22;20432;-76
2022/01/30 00:33:04;;;;;;;37.40;23.67;;;;;;;3.82;50.85;100110.72;6305765;22;20002;-75
2022/01/30 00:35:30;;;;;;;30.47;22.83;;;;;;;3.78;50.95;100107.53;6305728;22;19999;-76
2022/01/30 00:37:55;;;;;;;36.33;25.37;;;;;;;3.64;50.97;100091.25;6305750;22;20330;-76
2022/01/30 00:40:21;;;;;;;36.00;24.20;;;;;;;3.74;51.01;100100.06;6306220;22;19995;-76
2022/01/30 00:42:46;;;;;;;30.73;22.43;;;;;;;3.47;51.20;100066.47;6305780;22;20002;-75
2022/01/30 00:45:12;;;;;;;29.80;20.60;;;;;;;3.27;50.95;100030.66;6305863;22;20484;-76
2022/01/30 00:47:37;;;;;;;28.57;21.00;;;;;;;3.60;51.04;100103.72;6305812;22;20003;-76
2022/01/30 00:50:04;;;;;;;35.70;22.63;;;;;;;3.56;50.92;100083.19;6305958;22;20022;-76
2022/01/30 00:52:29;;;;;;;30.77;21.60;;;;;;;3.35;51.40;100059.59;6305788;22;20060;-75
2022/01/30 00:54:54;;;;;;;35.97;25.10;;;;;;;3.23;51.62;100037.06;6305665;22;20468;-76
2022/01/30 00:57:20;;;;;;;33.87;23.17;;;;;;;2.93;51.47;100007.16;6305699;22;20007;-75
2022/01/30 00:59:45;;;;;;;34.27;23.87;;;;;;;3.32;51.65;100065.06;6305514;22;19999;-75
2022/01/30 01:02:11;;;;;;;35.53;23.07;;;;;;;3.27;51.68;100062.81;6305530;22;19995;-75
2022/01/30 01:04:36;;;;;;;34.97;24.43;;;;;;;3.14;51.57;100029.00;6305643;22;19998;-76
2022/01/30 01:07:02;;;;;;;34.07;23.10;;;;;;;3.38;52.05;100077.63;6305411;22;20440;-76
2022/01/30 01:09:35;;;;;;;30.37;22.07;;;;;;;3.14;51.96;100028.16;6305608;22;20416;-76
2022/01/30 01:12:41;;;;;;;37.73;23.30;;;;;;;3.29;52.16;100066.13;6278322;22;20009;-76
2022/01/30 01:23:39;;;;;;;30.17;21.33;;;;;;;3.25;52.45;100035.16;6305730;22;20095;-76
2022/01/30 01:26:05;;;;;;;30.30;21.57;;;;;;;2.87;51.75;99966.72;6305744;22;19995;-76
2022/01/30 01:28:30;;;;;;;32.07;22.13;;;;;;;2.77;51.59;99936.28;6305375;22;19999;-76
2022/01/30 01:30:57;;;;;;;30.77;21.37;;;;;;;3.30;51.62;100019.97;6305124;22;20352;-76
2022/01/30 01:33:27;;;;;;;32.50;22.10;;;;;;;3.30;51.72;100020.81;6305215;22;20000;-76
2022/01/30 01:35:53;;;;;;;32.33;21.70;;;;;;;3.27;52.06;100007.16;6305317;22;19999;-76
2022/01/30 01:38:19;;;;;;;29.07;22.40;;;;;;;3.27;51.95;99992.34;6277993;22;19996;-76
2022/01/30 01:40:54;;;;;;;32.63;22.27;;;;;;;3.01;52.16;99947.44;6305571;22;19995;-76
2022/01/30 01:43:21;;;;;;;30.43;21.33;;;;;;;2.92;52.03;99948.13;6305494;22;19995;-76
2022/01/30 01:45:51;;;;;;;26.70;19.33;;;;;;;3.05;52.13;99964.50;6305517;22;20048;-75
2022/01/30 01:48:17;;;;;;;31.07;20.53;;;;;;;3.27;51.55;99978.47;6305366;22;20022;-76
2022/01/30 01:50:50;;;;;;;29.83;21.13;;;;;;;3.28;51.90;99974.91;6278053;22;20425;-76
2022/01/30 01:53:19;;;;;;;22.87;16.70;;;;;;;3.27;51.91;99960.19;6305120;22;20031;-75
2022/01/30 01:55:45;;;;;;;27.57;17.53;;;;;;;2.68;51.33;99863.97;6305145;22;20084;-76
2022/01/30 01:58:11;;;;;;;29.00;18.97;;;;;;;3.02;51.32;99930.00;6305312;22;20062;-76
2022/01/30 02:00:37;;;;;;;30.40;19.73;;;;;;;2.47;50.98;99830.00;6305500;22;20516;-76
2022/01/30 02:03:04;;;;;;;30.53;20.87;;;;;;;3.14;51.21;99945.50;6277685;22;20030;-75
2022/01/30 02:05:32;;;;;;;33.73;21.00;;;;;;;3.01;51.25;99944.81;6305184;22;20030;-75
2022/01/30 02:10:36;;;;;;;26.50;18.00;;;;;;;2.90;51.37;99951.78;6305369;22;20486;-75
2022/01/30 02:13:38;;;;;;;22.30;15.20;;;;;;;2.49;51.77;99901.91;6304907;22;20401;-76
2022/01/30 02:24:25;;;;;;;19.93;14.17;;;;;;;2.49;51.57;99922.75;6305250;22;20005;-76
2022/01/30 02:26:51;;;;;;;21.93;14.27;;;;;;;2.41;51.42;99919.06;6305177;22;19999;-76
2022/01/30 02:29:18;;;;;;;20.70;14.60;;;;;;;2.44;51.67;99924.06;6304933;22;20506;-76
2022/01/30 02:31:44;;;;;;;19.83;15.63;;;;;;;2.47;51.83;99926.41;6306051;22;19996;-76
2022/01/30 02:34:09;;;;;;;21.07;15.50;;;;;;;1.76;51.74;99821.53;6279900;22;20091;-76
2022/01/30 02:36:47;;;;;;;26.07;17.43;;;;;;;1.97;51.95;99871.16;6279810;22;20117;-76
2022/01/30 02:39:13;;;;;;;24.23;15.80;;;;;;;2.34;51.74;99917.88;6307214;22;20046;-75
2022/01/30 02:41:40;;;;;;;21.97;15.90;;;;;;;2.05;51.59;99880.97;6279649;22;20030;-76
2022/01/30 02:46:45;;;;;;;22.93;15.67;;;;;;;2.05;52.04;99886.19;6307395;22;19999;-76
2022/01/30 02:54:23;;;;;;;20.63;15.27;;;;;;;1.78;51.54;99829.22;6307044;22;20419;-76
2022/01/30 02:56:49;;;;;;;19.47;15.03;;;;;;;2.01;51.79;99869.97;6307033;22;19995;-75
2022/01/30 02:59:15;;;;;;;25.43;16.83;;;;;;;2.28;51.75;99908.75;6279479;22;19999;-76
2022/01/30 03:01:41;;;;;;;29.50;18.73;;;;;;;2.04;52.06;99868.91;6279332;22;19999;-76
2022/01/30 03:04:10;;;;;;;23.17;17.17;;;;;;;1.91;52.03;99879.41;6279157;22;20037;-76
2022/01/30 03:06:36;;;;;;;23.30;16.60;;;;;;;1.92;51.90;99865.44;6307046;22;19995;-78
2022/01/30 03:09:04;;;;;;;25.80;16.13;;;;;;;1.68;51.95;99815.22;6307221;22;19999;-75
2022/01/30 03:11:29;;;;;;;24.90;17.37;;;;;;;2.02;52.04;99866.41;6307304;22;19999;-75
2022/01/30 03:13:55;;;;;;;29.70;18.73;;;;;;;1.74;52.14;99825.19;6307049;22;20407;-76
2022/01/30 03:16:23;;;;;;;26.87;16.63;;;;;;;1.53;51.99;99797.22;6306910;22;20451;-76
2022/01/30 03:18:49;;;;;;;25.73;16.73;;;;;;;1.76;51.93;99812.88;6306869;22;20003;-76
2022/01/30 03:21:15;;;;;;;24.27;15.63;;;;;;;2.09;52.29;99866.78;6306902;22;20006;-76
2022/01/30 03:23:40;;;;;;;22.47;16.33;;;;;;;1.77;52.08;99804.97;6307248;22;19995;-76
2022/01/30 03:26:07;;;;;;;22.20;15.90;;;;;;;2.00;52.06;99834.47;6306807;22;19999;-76
2022/01/30 03:28:32;;;;;;;21.77;16.43;;;;;;;2.14;52.12;99856.84;6306578;22;19995;-76
2022/01/30 03:31:02;;;;;;;22.63;17.27;;;;;;;1.80;51.90;99807.31;6279110;22;20487;-76
2022/01/30 03:33:28;;;;;;;23.80;16.60;;;;;;;1.78;51.85;99797.97;6306732;22;20023;-76
2022/01/30 03:35:54;;;;;;;23.13;16.10;;;;;;;1.97;51.82;99839.06;6306761;22;19999;-76
2022/01/30 03:38:20;;;;;;;18.30;15.10;;;;;;;1.71;51.89;99795.00;6306994;22;20015;-76
2022/01/30 03:40:46;;;;;;;18.03;13.80;;;;;;;1.98;51.73;99838.13;6306762;22;19995;-76
2022/01/30 03:43:12;;;;;;;18.17;13.33;;;;;;;1.85;51.99;99838.22;6306154;22;19991;-76
2022/01/30 03:45:37;;;;;;;15.47;12.90;;;;;;;1.97;51.77;99863.34;6306494;22;20384;-75
2022/01/30 03:48:03;;;;;;;18.47;11.33;;;;;;;1.67;51.81;99830.00;6306356;22;20010;-76
2022/01/30 03:50:29;;;;;;;18.73;13.73;;;;;;;1.77;52.08;99856.19;6306618;22;19995;-76
2022/01/30 03:52:55;;;;;;;26.80;16.00;;;;;;;1.75;52.18;99856.31;6306410;22;20003;-76
2022/01/30 03:55:21;;;;;;;24.27;15.67;;;;;;;1.74;52.25;99852.03;6306250;22;20436;-76
2022/01/30 03:57:46;;;;;;;23.20;14.27;;;;;;;1.60;52.25;99826.22;6306254;22;20074;-76
2022/01/30 04:00:12;;;;;;;18.80;12.83;;;;;;;1.20;51.80;99764.09;6279449;22;20410;-76
2022/01/30 04:02:38;;;;;;;15.37;11.97;;;;;;;1.24;52.28;99762.94;6306330;22;19995;-76
2022/01/30 04:05:04;;;;;;;19.47;13.73;;;;;;;1.20;52.04;99750.28;6306216;22;20001;-75
2022/01/30 04:07:31;;;;;;;18.60;13.07;;;;;;;1.85;51.87;99838.22;6306666;22;20388;-76
2022/01/30 04:09:56;;;;;;;20.03;14.70;;;;;;;1.75;51.89;99811.22;6306370;22;20484;-76
2022/01/30 04:12:22;;;;;;;18.50;13.40;;;;;;;1.44;51.75;99771.03;6306121;22;20025;-76
2022/01/30 04:14:48;;;;;;;18.60;13.90;;;;;;;1.58;51.83;99815.91;6306309;22;20012;-75
2022/01/30 04:17:15;;;;;;;19.70;14.77;;;;;;;1.86;51.69;99830.28;6306457;22;20002;-75
2022/01/30 04:19:41;;;;;;;23.43;17.17;;;;;;;1.50;51.65;99770.59;6306290;22;20033;-76
2022/01/30 04:22:07;;;;;;;24.37;15.87;;;;;;;1.83;51.52;99832.31;6278550;22;19999;-76
2022/01/30 04:24:32;;;;;;;26.53;18.03;;;;;;;1.36;51.71;99747.34;6306027;22;20439;-76
2022/01/30 04:26:58;;;;;;;26.53;17.93;;;;;;;1.47;51.68;99783.81;6305913;22;20006;-76
2022/01/30 04:29:23;;;;;;;28.57;18.53;;;;;;;1.33;51.74;99763.19;6305643;22;20065;-75
2022/01/30 04:31:49;;;;;;;26.67;17.80;;;;;;;1.72;51.87;99809.69;6278468;22;20049;-75
2022/01/30 04:34:16;;;;;;;25.27;17.37;;;;;;;1.78;51.66;99827.44;6305879;22;20007;-76
2022/01/30 04:36:56;;;;;;;25.70;16.50;;;;;;;1.67;51.72;99803.16;6305923;22;20440;-76
2022/01/30 04:52:51;;;;;;;26.77;17.03;;;;;;;1.15;51.80;99752.38;6305517;22;20418;-75
2022/01/30 05:05:48;;;;;;;20.67;15.00;;;;;;;1.08;52.17;99767.59;6306167;22;20037;-76
2022/01/30 05:08:14;;;;;;;24.40;17.13;;;;;;;0.83;51.82;99715.75;6306125;22;20085;-76
2022/01/30 05:10:40;;;;;;;26.37;19.33;;;;;;;1.11;52.05;99775.19;6305503;22;19995;-76
2022/01/30 05:13:09;;;;;;;24.27;17.33;;;;;;;1.48;51.76;99834.91;6278635;22;19999;-77
2022/01/30 05:15:35;;;;;;;24.30;18.03;;;;;;;1.45;51.92;99824.72;6305581;22;20005;-76
2022/01/30 05:18:01;;;;;;;26.67;18.70;;;;;;;0.91;51.89;99742.84;6305431;22;20022;-76
2022/01/30 05:20:26;;;;;;;23.20;17.97;;;;;;;0.70;51.99;99723.56;6305282;22;20002;-77
2022/01/30 05:22:52;;;;;;;24.87;18.40;;;;;;;0.91;51.49;99727.25;6305404;22;19995;-76
2022/01/30 05:25:18;;;;;;;27.20;18.93;;;;;;;0.82;51.80;99717.53;6305610;22;20380;-76
2022/01/30 05:27:43;;;;;;;28.40;19.60;;;;;;;0.90;51.72;99741.19;6278139;22;19995;-76
2022/01/30 05:30:09;;;;;;;28.53;19.80;;;;;;;1.10;51.70;99752.72;6305481;22;20097;-77
2022/01/30 05:32:35;;;;;;;29.37;21.07;;;;;;;1.22;51.67;99782.19;6305484;22;20003;-77
2022/01/30 05:35:00;;;;;;;37.10;24.37;;;;;;;1.30;51.83;99785.06;6277921;22;20007;-76
2022/01/30 05:37:26;;;;;;;34.70;22.83;;;;;;;1.11;51.49;99749.19;6305305;22;20400;-77
2022/01/30 05:39:52;;;;;;;36.80;24.50;;;;;;;1.06;51.54;99750.47;6278077;22;19991;-76
2022/01/30 05:42:19;;;;;;;38.70;24.07;;;;;;;1.04;51.79;99758.38;6305392;22;20066;-76
2022/01/30 05:47:24;;;;;;;92.13;46.90;;;;;;;0.92;51.92;99760.09;6305248;22;19999;-76
2022/01/30 05:49:50;;;;;;;85.20;44.10;;;;;;;0.67;51.87;99731.59;6278307;22;19995;-76
2022/01/30 05:52:15;;;;;;;79.37;43.83;;;;;;;0.76;52.07;99761.31;6305241;22;20014;-76
2022/01/30 05:54:41;;;;;;;120.93;58.83;;;;;;;0.75;52.24;99747.50;6305283;22;20007;-76
2022/01/30 05:57:06;;;;;;;116.07;61.17;;;;;;;0.72;51.91;99710.47;6278008;22;19999;-77
2022/01/30 05:59:32;;;;;;;103.10;55.70;;;;;;;0.96;51.44;99703.50;6305657;22;19995;-76
2022/01/30 06:01:57;;;;;;;72.97;43.67;;;;;;;1.48;51.20;99759.44;6305451;22;20437;-77
2022/01/30 06:04:22;;;;;;;77.53;47.17;;;;;;;1.49;51.36;99761.97;6305304;22;20003;-76
2022/01/30 06:06:53;;;;;;;74.73;44.73;;;;;;;1.49;51.34;99753.31;6279156;22;20022;-76
2022/01/30 06:09:19;;;;;;;87.93;51.50;;;;;;;1.12;51.33;99691.03;6307285;22;20075;-77
2022/01/30 06:11:47;;;;;;;92.70;52.53;;;;;;;1.16;51.45;99694.22;6307250;22;20467;-76
2022/01/30 06:14:14;;;;;;;94.20;52.60;;;;;;;1.50;51.26;99745.41;6307231;22;20026;-76
2022/01/30 06:16:40;;;;;;;90.03;47.83;;;;;;;1.50;51.35;99732.41;6307370;22;20003;-76
2022/01/30 06:19:06;;;;;;;91.10;51.57;;;;;;;1.03;51.21;99646.69;6307416;22;19999;-76
2022/01/30 06:21:31;;;;;;;92.10;52.53;;;;;;;1.21;51.30;99661.72;6307268;22;19999;-77
2022/01/30 06:23:56;;;;;;;87.23;52.13;;;;;;;0.74;51.24;99589.06;6280292;22;20070;-77
2022/01/30 06:26:22;;;;;;;92.37;53.03;;;;;;;0.75;51.29;99593.34;6307508;22;20325;-76
2022/01/30 06:28:47;;;;;;;73.50;46.17;;;;;;;1.11;51.40;99641.75;6307318;22;20329;-76
2022/01/30 06:31:13;;;;;;;68.23;42.87;;;;;;;0.99;51.44;99612.28;6307025;22;20053;-76
2022/01/30 06:33:38;;;;;;;68.87;42.80;;;;;;;0.99;50.95;99606.25;6279713;22;20003;-76
2022/01/30 06:36:04;;;;;;;62.90;41.23;;;;;;;0.76;51.13;99551.66;6307142;22;20022;-76
2022/01/30 06:38:29;;;;;;;62.60;40.73;;;;;;;1.28;51.29;99628.28;6307375;22;20003;-77
2022/01/30 06:40:55;;;;;;;67.30;41.13;;;;;;;1.03;51.22;99587.72;6307747;22;20003;-76
2022/01/30 06:43:20;;;;;;;66.07;41.37;;;;;;;0.92;51.48;99561.72;6306945;22;20115;-77
2022/01/30 06:45:47;;;;;;;71.23;46.13;;;;;;;1.60;51.54;99667.47;6307154;22;19999;-76
2022/01/30 06:48:17;;;;;;;71.27;44.77;;;;;;;1.67;51.53;99660.03;6307045;22;20002;-76
2022/01/30 06:50:42;;;;;;;65.20;42.03;;;;;;;1.24;51.44;99577.44;6307070;22;20003;-76
2022/01/30 06:53:08;;;;;;;67.77;43.40;;;;;;;1.47;51.70;99614.69;6306923;22;20057;-76
2022/01/30 06:55:33;;;;;;;69.77;43.23;;;;;;;1.42;51.31;99580.41;6279750;22;20437;-76
2022/01/30 06:57:59;;;;;;;71.47;44.37;;;;;;;0.94;51.46;99502.63;6307392;22;20003;-76
2022/01/30 07:00:24;;;;;;;61.17;40.53;;;;;;;1.42;51.13;99575.19;6279699;22;20004;-76
2022/01/30 07:02:49;;;;;;;64.10;41.33;;;;;;;1.51;51.24;99574.50;6306995;22;19999;-76
2022/01/30 07:05:15;;;;;;;63.47;40.87;;;;;;;1.56;51.44;99607.03;6306721;22;20456;-76
2022/01/30 07:07:41;;;;;;;77.73;50.70;;;;;;;1.83;51.23;99629.25;6306802;22;19991;-76
2022/01/30 07:10:07;;;;;;;91.57;59.43;;;;;;;1.60;51.24;99586.81;6306821;22;20022;-76
2022/01/30 07:12:33;;;;;;;90.70;57.67;;;;;;;1.61;51.37;99592.84;6306956;22;19999;-76
2022/01/30 07:14:58;;;;;;;104.30;64.63;;;;;;;2.10;51.31;99689.56;6307008;22;20512;-76
2022/01/30 07:17:24;;;;;;;118.27;71.73;;;;;;;1.67;51.48;99614.00;6279275;22;20455;-76
2022/01/30 07:19:49;;;;;;;120.40;73.33;;;;;;;2.16;51.49;99706.47;6306691;22;20014;-76
2022/01/30 07:22:15;;;;;;;130.83;77.20;;;;;;;1.77;51.65;99625.34;6306988;22;20003;-76
2022/01/30 07:24:40;;;;;;;64.60;40.17;;;;;;;2.31;51.70;99689.69;6307175;22;20015;-76
2022/01/30 07:27:05;;;;;;;59.23;35.70;;;;;;;1.97;51.41;99638.56;6306972;22;19999;-76
2022/01/30 07:29:31;;;;;;;56.27;34.07;;;;;;;2.34;51.16;99686.00;6307229;22;20002;-76
2022/01/30 07:31:56;;;;;;;47.30;28.13;;;;;;;1.81;51.42;99618.13;6306969;22;20353;-77
2022/01/30 07:34:22;;;;;;;55.60;31.20;;;;;;;2.57;51.41;99702.41;6307257;22;20042;-76
2022/01/30 07:36:48;;;;;;;47.87;29.70;;;;;;;2.04;51.47;99624.13;6307408;22;19999;-76
2022/01/30 07:39:15;;;;;;;53.33;31.13;;;;;;;2.69;50.86;99707.44;6306875;22;19999;-76
2022/01/30 07:41:43;;;;;;;49.00;30.67;;;;;;;2.72;51.11;99701.16;6306738;22;20021;-76
2022/01/30 07:44:08;;;;;;;59.57;34.20;;;;;;;2.27;51.00;99614.50;6306435;22;19991;-76
2022/01/30 07:46:34;;;;;;;49.20;32.90;;;;;;;2.42;51.18;99603.66;6290228;22;20010;-76
2022/01/30 07:49:00;;;;;;;52.00;31.13;;;;;;;2.37;50.96;99578.94;6306513;22;20433;-76
2022/01/30 07:51:25;;;;;;;31.80;22.23;;;;;;;2.97;51.33;99663.47;6306661;22;20013;-76
2022/01/30 07:53:50;;;;;;;26.03;18.60;;;;;;;2.69;50.94;99603.19;6306478;22;20018;-76
2022/01/30 07:56:16;;;;;;;21.40;14.83;;;;;;;2.68;50.32;99593.69;6306775;22;20006;-76
2022/01/30 07:58:41;;;;;;;24.03;16.50;;;;;;;3.26;50.34;99666.31;6306616;22;20448;-76
2022/01/30 08:01:07;;;;;;;21.67;15.37;;;;;;;3.34;50.03;99662.09;6306732;22;19999;-76
2022/01/30 08:03:32;;;;;;;28.17;18.03;;;;;;;2.96;49.79;99573.16;6306267;22;20432;-76
2022/01/30 08:05:58;;;;;;;26.43;18.27;;;;;;;3.27;49.86;99623.59;6278603;22;19999;-76
2022/01/30 08:08:23;;;;;;;27.57;18.20;;;;;;;3.31;49.29;99625.00;6306291;22;20025;-76
2022/01/30 08:10:49;;;;;;;36.20;21.53;;;;;;;3.07;49.18;99571.31;6306343;22;20432;-76
2022/01/30 08:13:16;;;;;;;26.57;18.47;;;;;;;3.48;49.49;99619.97;6306470;22;20066;-76
2022/01/30 08:15:42;;;;;;;32.67;19.83;;;;;;;3.74;48.84;99640.44;6306250;22;19999;-76
2022/01/30 08:18:08;;;;;;;27.17;17.83;;;;;;;3.82;48.80;99648.44;6278818;22;20368;-77
2022/01/30 08:20:33;;;;;;;22.83;15.63;;;;;;;3.56;48.87;99606.28;6306056;22;20005;-77
2022/01/30 08:23:00;;;;;;;8.90;7.07;;;;;;;3.56;48.63;99593.22;6306247;22;20483;-76
2022/01/30 08:25:26;;;;;;;11.50;8.07;;;;;;;3.73;48.24;99594.41;6306328;22;20073;-76
2022/01/30 08:27:53;;;;;;;10.80;8.20;;;;;;;4.14;48.06;99636.03;6305902;22;19999;-78
2022/01/30 08:30:19;;;;;;;6.70;5.40;;;;;;;4.24;47.79;99624.75;6306072;22;20006;-76
2022/01/30 08:32:47;;;;;;;6.57;5.07;;;;;;;4.35;47.60;99622.84;6278788;22;20074;-76
2022/01/30 08:35:14;;;;;;;6.63;5.17;;;;;;;4.22;47.16;99566.56;6306276;22;20007;-76
2022/01/30 08:37:40;;;;;;;7.83;5.27;;;;;;;4.71;47.06;99618.75;6278858;22;20006;-76
2022/01/30 08:40:09;;;;;;;12.17;6.43;;;;;;;4.41;46.51;99540.44;6306343;22;20003;-76
2022/01/30 08:42:35;;;;;;;7.27;4.70;;;;;;;5.11;46.12;99588.94;6278841;22;20006;-75
2022/01/30 08:45:02;;;;;;;5.83;5.30;;;;;;;5.05;45.51;99551.06;6305614;22;20405;-76
2022/01/30 08:47:27;;;;;;;6.10;4.77;;;;;;;4.72;45.63;99481.78;6305524;22;20006;-76
2022/01/30 08:49:53;;;;;;;7.07;5.40;;;;;;;4.86;44.93;99463.97;6278470;22;20042;-76
2022/01/30 08:52:19;;;;;;;7.70;5.90;;;;;;;5.59;44.58;99575.69;6305803;22;20027;-76
2022/01/30 08:54:53;;;;;;;9.27;6.90;;;;;;;5.30;44.19;99499.06;6278132;22;20468;-77
2022/01/30 08:57:19;;;;;;;8.63;6.30;;;;;;;5.74;43.98;99557.69;6305657;22;20075;-76
2022/01/30 08:59:45;;;;;;;6.57;4.73;;;;;;;5.37;43.86;99514.06;6305488;22;20046;-76
2022/01/30 09:02:11;;;;;;;7.40;4.90;;;;;;;5.54;43.67;99541.25;6278066;22;20026;-76
2022/01/30 09:04:37;;;;;;;8.20;6.07;;;;;;;5.51;43.83;99515.34;6305361;22;20421;-77
2022/01/30 09:07:02;;;;;;;5.87;4.87;;;;;;;5.61;43.98;99513.50;6305337;22;19995;-77
2022/01/30 09:09:29;;;;;;;7.50;6.10;;;;;;;6.02;44.00;99572.47;6305633;22;19999;-77
2022/01/30 09:11:55;;;;;;;6.57;4.90;;;;;;;5.88;43.62;99551.94;6278570;22;19999;-77
2022/01/30 09:14:22;;;;;;;5.17;4.67;;;;;;;5.96;43.71;99564.38;6305417;22;20004;-77
2022/01/30 09:16:48;;;;;;;8.80;6.63;;;;;;;5.31;44.12;99451.81;6278173;22;20010;-76
2022/01/30 09:19:14;;;;;;;7.60;5.30;;;;;;;5.79;44.12;99520.56;6305526;22;19995;-75
2022/01/30 09:21:40;;;;;;;7.17;5.30;;;;;;;5.84;43.90;99536.66;6305670;22;20026;-78
2022/01/30 09:24:06;;;;;;;6.10;5.50;;;;;;;5.76;43.94;99534.78;6278020;22;20038;-78
2022/01/30 09:26:31;;;;;;;7.80;6.60;;;;;;;5.50;43.94;99503.22;6305288;22;19995;-78
2022/01/30 09:28:57;;;;;;;11.50;8.50;;;;;;;5.91;43.84;99572.63;6277877;22;20011;-79
2022/01/30 09:31:22;;;;;;;17.40;10.23;;;;;;;5.47;44.26;99492.22;6277736;22;20074;-78
2022/01/30 09:33:48;;;;;;;8.00;6.43;;;;;;;5.82;44.24;99533.38;6304967;22;20003;-77
2022/01/30 09:36:14;;;;;;;10.60;6.50;;;;;;;5.61;44.08;99494.34;6305300;22;19995;-78
2022/01/30 09:38:40;;;;;;;11.07;7.33;;;;;;;5.70;43.89;99481.19;6277880;22;20463;-78
2022/01/30 09:41:08;;;;;;;10.13;7.10;;;;;;;5.98;43.72;99525.72;6304955;22;20074;-77
2022/01/30 09:43:34;;;;;;;10.23;6.70;;;;;;;5.74;44.04;99487.78;6305176;22;19995;-78
2022/01/30 09:46:00;;;;;;;11.53;6.67;;;;;;;5.87;43.98;99478.72;6278024;22;20090;-78
2022/01/30 09:48:26;;;;;;;13.20;9.57;;;;;;;5.51;44.28;99399.31;6305278;22;19999;-78
2022/01/30 09:50:54;;;;;;;17.07;12.50;;;;;;;6.12;44.09;99492.94;6305099;22;20005;-78
2022/01/30 09:53:19;;;;;;;18.67;14.13;;;;;;;5.77;43.99;99422.97;6305171;22;20452;-78
2022/01/30 09:55:45;;;;;;;18.20;14.13;;;;;;;6.30;44.22;99507.66;6303676;22;20015;-77
2022/01/30 09:58:10;;;;;;;13.93;12.03;;;;;;;5.86;44.08;99422.88;6277908;22;20352;-78
2022/01/30 10:00:36;;;;;;;11.73;8.50;;;;;;;6.33;43.47;99486.38;6277818;22;20003;-78
2022/01/30 10:03:01;;;;;;;10.53;8.33;;;;;;;5.95;43.64;99429.06;6305110;22;19999;-78
2022/01/30 10:05:32;;;;;;;12.53;9.23;;;;;;;6.33;43.98;99480.31;6305204;22;19991;-78
2022/01/30 10:07:58;;;;;;;11.87;9.43;;;;;;;6.19;44.03;99454.66;6305128;22;19999;-78
2022/01/30 10:10:26;;;;;;;14.33;10.50;;;;;;;6.29;43.56;99455.38;6305102;22;20492;-78
2022/01/30 10:13:01;;;;;;;7.37;6.10;;;;;;;5.77;43.48;99381.03;6304984;22;19995;-78
2022/01/30 10:15:27;;;;;;;8.30;6.03;;;;;;;6.26;43.40;99442.56;6305365;22;20356;-77
2022/01/30 10:17:53;;;;;;;6.67;5.47;;;;;;;6.26;43.33;99434.72;6304862;22;19995;-78
2022/01/30 10:20:20;;;;;;;9.73;7.20;;;;;;;6.09;43.20;99402.31;6304891;22;20432;-78
2022/01/30 10:22:59;;;;;;;9.17;7.53;;;;;;;6.35;43.50;99450.34;6305036;22;20070;-78
2022/01/30 10:25:30;;;;;;;18.50;12.60;;;;;;;6.43;43.10;99425.97;6277620;22;20057;-78
2022/01/30 10:28:16;;;;;;;13.83;9.13;;;;;;;6.51;42.85;99420.78;6305227;22;20081;-77
2022/01/30 10:30:46;;;;;;;13.33;9.20;;;;;;;6.58;43.18;99410.50;6277664;22;20003;-78
2022/01/30 10:33:14;;;;;;;12.63;10.17;;;;;;;6.71;43.37;99418.78;6304953;22;19999;-78
2022/01/30 10:35:57;;;;;;;15.87;10.20;;;;;;;6.62;42.68;99375.09;6304941;22;19999;-78
2022/01/30 10:38:32;;;;;;;13.70;10.10;;;;;;;6.44;42.75;99335.84;6277655;22;20076;-77
2022/01/30 10:41:10;;;;;;;18.20;10.70;;;;;;;6.40;42.69;99300.41;6304780;22;19996;-78
2022/01/30 10:44:05;;;;;;;17.07;11.83;;;;;;;7.04;42.58;99390.88;6304794;22;19991;-77
2022/01/30 10:46:44;;;;;;;18.77;13.63;;;;;;;7.06;43.16;99385.47;6301400;22;20003;-78
2022/01/30 10:49:12;;;;;;;19.63;14.93;;;;;;;7.06;42.69;99386.28;6277664;22;20459;-78
2022/01/30 10:51:38;;;;;;;22.03;15.77;;;;;;;7.03;42.57;99397.09;6277442;22;20086;-78
2022/01/30 10:54:09;;;;;;;18.33;13.27;;;;;;;6.84;42.66;99360.63;6306018;22;20101;-78
2022/01/30 10:56:35;;;;;;;19.67;13.90;;;;;;;7.00;42.91;99381.69;6306821;22;19995;-78
2022/01/30 10:59:22;;;;;;;16.97;12.80;;;;;;;6.91;42.84;99366.88;6306951;22;20014;-78
2022/01/30 11:01:50;;;;;;;18.20;13.23;;;;;;;7.04;43.13;99369.06;6279092;22;20003;-78
2022/01/30 11:04:31;;;;;;;19.53;13.87;;;;;;;7.07;42.27;99366.94;6279085;22;20366;-77
2022/01/30 11:07:02;;;;;;;22.67;15.93;;;;;;;6.71;42.31;99292.84;6306586;22;20353;-78
2022/01/30 11:09:34;;;;;;;30.47;20.57;;;;;;;7.19;42.60;99351.69;6306625;22;20010;-78
2022/01/30 11:12:03;;;;;;;23.00;16.95;;;;;;;7.03;42.58;99318.34;6306718;22;20018;-78
2022/01/30 11:14:38;;;;;;;24.03;17.70;;;;;;;7.03;42.99;99294.72;6279130;22;20010;-78
2022/01/30 11:17:05;;;;;;;26.67;19.47;;;;;;;7.16;43.01;99295.09;6306771;22;20070;-79
2022/01/30 11:19:33;;;;;;;23.30;18.10;;;;;;;7.38;42.85;99308.56;6306481;22;19999;-77
2022/01/30 11:22:08;;;;;;;27.17;18.13;;;;;;;7.42;42.08;99294.13;6279087;22;20357;-79
2022/01/30 11:24:56;;;;;;;21.63;17.33;;;;;;;7.45;42.32;99289.38;6306708;22;19991;-77
2022/01/30 11:27:22;;;;;;;25.70;17.33;;;;;;;6.81;42.26;99162.34;6306621;22;20021;-78
2022/01/30 11:29:50;;;;;;;23.23;16.67;;;;;;;7.48;42.49;99267.22;6306269;22;20004;-78
2022/01/30 11:32:17;;;;;;;25.83;19.57;;;;;;;7.50;42.58;99258.19;6306250;22;19995;-79
2022/01/30 11:34:43;;;;;;;22.50;18.17;;;;;;;7.47;42.19;99263.78;6306314;22;20021;-78
2022/01/30 11:37:11;;;;;;;28.07;17.70;;;;;;;7.49;42.27;99251.28;6279013;22;19999;-78
2022/01/30 11:39:41;;;;;;;21.07;15.93;;;;;;;7.52;42.12;99247.53;6306480;22;19996;-78
2022/01/30 11:42:10;;;;;;;17.43;14.43;;;;;;;7.56;42.22;99228.63;6306102;22;19999;-79
2022/01/30 11:44:38;;;;;;;21.17;15.60;;;;;;;7.61;42.07;99241.25;6307096;22;19999;-78
2022/01/30 11:47:03;;;;;;;18.33;13.27;;;;;;;7.69;42.07;99224.66;6306539;22;19996;-78
2022/01/30 11:49:42;;;;;;;15.03;11.53;;;;;;;7.51;41.22;99175.78;6306555;22;19999;-77
2022/01/30 11:52:12;;;;;;;18.57;12.50;;;;;;;7.91;41.74;99195.88;6306050;22;20425;-78
2022/01/30 11:55:00;;;;;;;17.30;13.30;;;;;;;7.83;40.71;99171.41;6306107;22;20120;-78
2022/01/30 11:57:27;;;;;;;15.83;11.83;;;;;;;7.95;41.02;99185.81;6306360;22;19999;-78
2022/01/30 11:59:56;;;;;;;8.90;7.47;;;;;;;7.95;39.94;99185.81;6306310;22;20433;-78
2022/01/30 12:02:22;;;;;;;10.43;7.77;;;;;;;7.76;40.49;99163.38;6306279;22;20082;-77
2022/01/30 12:05:05;;;;;;;11.20;8.63;;;;;;;7.79;40.39;99155.16;6278447;22;20006;-79
2022/01/30 12:07:33;;;;;;;8.82;7.03;;;;;;;8.00;40.64;99175.63;6305827;22;20455;-77
2022/01/30 12:10:21;;;;;;;10.17;7.57;;;;;;;8.03;39.82;99179.72;6278782;22;20431;-78
2022/01/30 12:13:03;;;;;;;10.67;7.73;;;;;;;7.63;40.60;99103.50;6306149;22;20347;-78
2022/01/30 12:15:37;;;;;;;8.43;6.30;;;;;;;8.11;40.14;99161.28;6305979;22;20003;-79
2022/01/30 12:18:09;;;;;;;10.47;6.20;;;;;;;7.94;39.46;99148.22;6305908;22;20074;-78
2022/01/30 12:21:00;;;;;;;8.50;6.75;;;;;;;8.17;38.86;99174.56;6306190;22;20002;-78
2022/01/30 12:23:28;;;;;;;12.87;7.97;;;;;;;8.07;39.25;99149.47;6278749;22;20007;-78